createdAt,value
2022-10-23T06:18:09.125Z,100.00
2022-10-23T06:20:48.945Z,100.00
2022-10-23T06:26:24.152Z,100.00
2022-10-23T06:29:14.775Z,100.00
2022-10-23T06:31:44.043Z,100.00
2022-10-23T06:34:13.543Z,100.00
2022-10-23T06:36:42.006Z,100.00
2022-10-23T06:39:28.446Z,100.00
2022-10-23T06:42:07.135Z,100.00
2022-10-23T06:45:10.050Z,100.00
2022-10-23T06:47:37.858Z,100.00
2022-10-23T06:50:25.193Z,100.00
2022-10-23T06:52:54.302Z,100.00
2022-10-23T06:55:23.115Z,100.00
2022-10-23T06:57:53.189Z,100.00
2022-10-23T07:00:21.608Z,100.00
2022-10-23T07:02:52.174Z,100.00
2022-10-23T07:05:21.444Z,100.00
2022-10-23T07:07:49.443Z,100.00
2022-10-23T07:10:23.866Z,100.00
2022-10-23T07:13:01.367Z,100.00
2022-10-23T07:15:41.306Z,100.00
2022-10-23T07:18:16.814Z,100.00
2022-10-23T07:21:19.822Z,100.00
2022-10-23T07:23:48.973Z,100.00
2022-10-23T07:26:17.631Z,100.00
2022-10-23T07:28:50.679Z,100.00
2022-10-23T07:31:25.640Z,100.00
2022-10-23T07:34:14.552Z,100.00
2022-10-23T07:36:44.019Z,100.00
2022-10-23T07:39:12.178Z,100.00
2022-10-23T07:41:47.539Z,100.00
2022-10-23T07:44:17.221Z,100.00
2022-10-23T07:46:45.106Z,100.00
2022-10-23T07:49:13.234Z,100.00
2022-10-23T07:51:41.887Z,100.00
2022-10-23T07:54:13.096Z,100.00
2022-10-23T07:56:47.073Z,100.00
2022-10-23T07:59:23.409Z,100.00
2022-10-23T08:01:56.616Z,100.00
2022-10-23T08:04:35.852Z,100.00
2022-10-23T08:07:14.485Z,95.91
2022-10-23T08:09:45.411Z,84.95
2022-10-23T08:12:13.403Z,82.05
2022-10-23T08:14:42.869Z,81.96
2022-10-23T08:17:11.476Z,83.47
2022-10-23T08:19:58.025Z,86.18
2022-10-23T08:22:29.479Z,85.80
2022-10-23T08:25:00.365Z,81.70
2022-10-23T08:27:28.496Z,79.47
2022-10-23T08:29:58.120Z,78.04
2022-10-23T08:32:29.344Z,73.85
2022-10-23T08:35:01.448Z,76.09
2022-10-23T08:37:32.290Z,82.04
2022-10-23T08:40:00.603Z,84.07
2022-10-23T08:42:54.308Z,82.54
2022-10-23T08:45:31.257Z,84.04
2022-10-23T08:48:27.121Z,86.36
2022-10-23T08:51:31.004Z,88.88
2022-10-23T08:54:04.135Z,95.64
2022-10-23T08:56:35.338Z,94.91
2022-10-23T08:59:08.911Z,94.98
2022-10-23T09:01:43.497Z,94.30
2022-10-23T09:04:13.808Z,93.39
2022-10-23T09:06:48.815Z,90.26
2022-10-23T09:09:35.980Z,91.10
2022-10-23T09:12:08.590Z,91.37
2022-10-23T09:14:51.205Z,91.69
2022-10-23T09:17:25.560Z,91.16
2022-10-23T09:20:00.248Z,90.84
2022-10-23T09:22:29.043Z,87.24
2022-10-23T09:24:57.035Z,84.99
2022-10-23T09:27:25.691Z,80.85
2022-10-23T09:29:57.789Z,78.17
2022-10-23T09:32:39.279Z,77.74
2022-10-23T09:35:08.247Z,77.35
2022-10-23T09:37:37.559Z,84.63
2022-10-23T09:40:17.532Z,89.47
2022-10-23T09:42:56.035Z,87.71
2022-10-23T09:45:30.999Z,90.68
2022-10-23T09:48:11.399Z,94.82
2022-10-23T09:50:48.207Z,98.78
2022-10-23T09:53:20.050Z,97.41
2022-10-23T09:55:54.005Z,91.93
2022-10-23T09:58:31.169Z,92.64
2022-10-23T10:00:59.506Z,91.56
2022-10-23T10:03:51.236Z,87.75
2022-10-23T10:06:25.031Z,92.67
2022-10-23T10:08:55.537Z,88.36
2022-10-23T10:11:29.472Z,86.59
2022-10-23T10:14:29.113Z,85.03
2022-10-23T10:17:02.406Z,85.48
2022-10-23T10:19:46.704Z,82.20
2022-10-23T10:22:27.353Z,84.10
2022-10-23T10:25:03.256Z,82.18
2022-10-23T10:27:46.288Z,83.38
2022-10-23T10:30:19.588Z,83.37
2022-10-23T10:32:55.969Z,85.29
2022-10-23T10:35:34.498Z,84.43
2022-10-23T10:38:27.836Z,84.67
2022-10-23T10:41:21.528Z,82.56
2022-10-23T10:44:02.220Z,82.00
2022-10-23T10:46:38.106Z,85.51
2022-10-23T10:49:18.465Z,88.00
2022-10-23T10:52:19.658Z,88.76
2022-10-23T10:54:59.600Z,89.58
2022-10-23T10:57:33.511Z,88.15
2022-10-23T11:00:07.096Z,81.78
2022-10-23T11:02:41.839Z,80.95
2022-10-23T11:05:21.496Z,78.94
2022-10-23T11:07:55.774Z,74.42
2022-10-23T11:10:24.310Z,70.44
2022-10-23T11:12:52.857Z,67.71
2022-10-23T11:15:25.355Z,74.36
2022-10-23T11:17:58.890Z,73.69
2022-10-23T11:20:39.995Z,70.66
2022-10-23T11:23:47.147Z,62.73
2022-10-23T11:26:26.232Z,55.60
2022-10-23T11:29:19.452Z,54.23
2022-10-23T11:32:04.872Z,56.60
2022-10-23T11:34:53.667Z,50.60
2022-10-23T11:37:24.677Z,48.57
2022-10-23T11:40:14.152Z,48.97
2022-10-23T11:42:49.502Z,52.11
2022-10-23T11:45:29.214Z,54.52
2022-10-23T11:47:59.308Z,55.21
2022-10-23T11:50:31.881Z,52.79
2022-10-23T11:53:14.581Z,53.03
2022-10-23T11:56:01.080Z,41.11
2022-10-23T11:58:41.549Z,36.32
2022-10-23T12:01:25.991Z,31.78
2022-10-23T12:03:57.012Z,29.24
2022-10-23T12:06:30.895Z,28.58
2022-10-23T12:09:03.061Z,28.28
2022-10-23T12:11:45.974Z,26.66
2022-10-23T12:14:28.541Z,27.94
2022-10-23T12:16:56.615Z,25.42
2022-10-23T12:19:27.677Z,24.82
2022-10-23T12:21:58.962Z,26.28
2022-10-23T12:24:43.231Z,23.65
2022-10-23T12:27:22.077Z,27.60
2022-10-23T12:30:02.896Z,28.80
2022-10-23T12:32:44.425Z,32.09
2022-10-23T12:35:55.252Z,29.31
2022-10-23T12:38:28.623Z,29.05
2022-10-23T12:41:04.789Z,28.31
2022-10-23T12:43:37.430Z,32.48
2022-10-23T12:46:23.070Z,35.06
2022-10-23T12:48:54.104Z,37.45
2022-10-23T12:51:25.145Z,43.24
2022-10-23T12:53:53.457Z,48.66
2022-10-23T12:56:21.736Z,50.49
2022-10-23T12:58:53.544Z,45.52
2022-10-23T13:01:27.391Z,41.00
2022-10-23T13:04:00.538Z,43.71
2022-10-23T13:06:29.149Z,46.28
2022-10-23T13:08:58.067Z,47.35
2022-10-23T13:11:36.180Z,47.80
2022-10-23T13:14:13.894Z,45.61
2022-10-23T13:16:42.038Z,45.69
2022-10-23T13:19:24.449Z,44.35
2022-10-23T13:21:52.582Z,44.46
2022-10-23T13:24:22.596Z,43.47
2022-10-23T13:26:50.586Z,43.20
2022-10-23T13:29:23.343Z,42.80
2022-10-23T13:31:52.019Z,43.45
2022-10-23T13:34:24.903Z,44.20
2022-10-23T13:37:01.661Z,44.84
2022-10-23T13:39:32.147Z,45.09
2022-10-23T13:42:12.219Z,45.43
2022-10-23T13:44:42.257Z,46.54
2022-10-23T13:47:13.514Z,45.62
2022-10-23T13:49:41.597Z,46.03
2022-10-23T13:52:12.231Z,46.48
2022-10-23T13:54:40.374Z,46.25
2022-10-23T13:57:14.112Z,46.64
2022-10-23T13:59:44.030Z,48.40
2022-10-23T14:02:21.134Z,50.01
2022-10-23T14:04:49.246Z,49.67
2022-10-23T14:07:17.403Z,50.24
2022-10-23T14:09:45.717Z,49.44
2022-10-23T14:12:13.857Z,49.47
2022-10-23T14:14:43.095Z,48.88
2022-10-23T14:17:11.225Z,48.82
2022-10-23T14:19:39.150Z,48.36
2022-10-23T14:22:06.933Z,48.14
2022-10-23T14:24:34.576Z,49.15
2022-10-23T14:27:02.657Z,53.15
2022-10-23T14:29:30.388Z,55.76
2022-10-23T14:31:59.515Z,54.78
2022-10-23T14:34:27.216Z,57.39
2022-10-23T14:37:08.176Z,59.10
2022-10-23T14:39:37.187Z,61.42
2022-10-23T14:42:05.306Z,63.79
2022-10-23T14:44:33.704Z,65.52
2022-10-23T14:47:03.223Z,66.15
2022-10-23T14:49:31.470Z,68.19
2022-10-23T14:51:59.694Z,71.28
2022-10-23T14:54:29.351Z,73.29
2022-10-23T14:56:57.155Z,73.95
2022-10-23T14:59:25.032Z,75.40
2022-10-23T15:04:24.033Z,78.55
2022-10-23T15:06:52.541Z,82.19
2022-10-23T15:09:20.438Z,82.37
2022-10-23T15:11:48.782Z,82.81
2022-10-23T15:14:16.949Z,80.83
2022-10-23T15:16:44.758Z,78.62
2022-10-23T15:19:18.172Z,74.29
2022-10-23T15:21:48.940Z,74.16
2022-10-23T15:24:17.181Z,72.95
2022-10-23T15:26:45.835Z,71.97
2022-10-23T15:29:14.924Z,71.19
2022-10-23T15:31:45.309Z,73.20
2022-10-23T15:34:15.920Z,71.76
2022-10-23T15:36:45.058Z,70.70
2022-10-23T15:39:15.906Z,71.86
2022-10-23T15:41:44.303Z,72.29
2022-10-23T15:44:14.392Z,73.20
2022-10-23T15:46:42.459Z,73.49
2022-10-23T15:49:11.107Z,73.47
2022-10-23T15:51:39.896Z,73.88
2022-10-23T15:54:10.631Z,75.84
2022-10-23T15:56:40.174Z,76.73
2022-10-23T15:59:08.325Z,76.56
2022-10-23T16:01:37.175Z,76.19
2022-10-23T16:04:05.294Z,76.92
2022-10-23T16:06:33.389Z,77.31
2022-10-23T16:09:01.427Z,78.50
2022-10-23T16:11:32.033Z,80.17
2022-10-23T16:14:01.716Z,81.12
2022-10-23T16:16:30.854Z,82.05
2022-10-23T16:18:59.843Z,82.40
2022-10-23T16:21:30.345Z,83.20
2022-10-23T16:24:00.752Z,82.89
2022-10-23T16:26:30.414Z,82.95
